ACA265 CYYZ-CYWG
Flight info
| Callsign | ACA265 |
|---|---|
| Flight time | N/A |
| Altitude | 36000 |
| Route | AVSEP7 MUSIT DCT SSM DCT AGLIN DCT GOVIT NORAK5 |
| Aircraft | A320/M-SDE3FGHIRWY/LB1 |
Departure
| Time | 2026-05-06 00:34 |
|---|---|
| Airport | Toronto Pearson International Airport (CYYZ) |
Arrival
| Time | N/A |
|---|---|
| Airport | Winnipeg / James Armstrong Richardson International Airport (CYWG) |
| Time | Latitude | Longitude | Altitude | Speed | Heading |
|---|---|---|---|---|---|
| 2026-05-05 23:58 | 43.68007 | -79.61467 | 568 ft | 0 kts | 324° |
| 2026-05-06 00:18 | 43.67989 | -79.61448 | 562 ft | 4 kts | 317° |
| 2026-05-06 00:18 | 43.67971 | -79.61421 | 567 ft | 4 kts | 301° |
| 2026-05-06 00:18 | 43.67961 | -79.61388 | 571 ft | 4 kts | 269° |
| 2026-05-06 00:19 | 43.67963 | -79.61372 | 569 ft | 0 kts | 250° |
| 2026-05-06 00:25 | 43.67960 | -79.61381 | 567 ft | 6 kts | 247° |
| 2026-05-06 00:26 | 43.67911 | -79.61426 | 567 ft | 9 kts | 206° |
| 2026-05-06 00:26 | 43.67863 | -79.61480 | 568 ft | 9 kts | 226° |
| 2026-05-06 00:26 | 43.67822 | -79.61541 | 566 ft | 9 kts | 227° |
| 2026-05-06 00:26 | 43.67771 | -79.61617 | 565 ft | 11 kts | 226° |
| 2026-05-06 00:27 | 43.67709 | -79.61649 | 568 ft | 9 kts | 167° |
| 2026-05-06 00:27 | 43.67651 | -79.61655 | 566 ft | 8 kts | 213° |
| 2026-05-06 00:27 | 43.67633 | -79.61707 | 569 ft | 5 kts | 271° |
| 2026-05-06 00:27 | 43.67680 | -79.61791 | 564 ft | 19 kts | 315° |
| 2026-05-06 00:28 | 43.67794 | -79.61939 | 564 ft | 24 kts | 317° |
| 2026-05-06 00:28 | 43.67919 | -79.62073 | 562 ft | 21 kts | 337° |
| 2026-05-06 00:28 | 43.68037 | -79.62189 | 562 ft | 21 kts | 319° |
| 2026-05-06 00:28 | 43.68143 | -79.62331 | 563 ft | 21 kts | 317° |
| 2026-05-06 00:29 | 43.68251 | -79.62461 | 566 ft | 21 kts | 321° |
| 2026-05-06 00:29 | 43.68358 | -79.62596 | 568 ft | 21 kts | 316° |
| 2026-05-06 00:29 | 43.68467 | -79.62738 | 565 ft | 23 kts | 316° |
| 2026-05-06 00:29 | 43.68588 | -79.62895 | 563 ft | 25 kts | 320° |
| 2026-05-06 00:30 | 43.68673 | -79.63002 | 564 ft | 25 kts | 316° |
| 2026-05-06 00:30 | 43.68797 | -79.63167 | 564 ft | 25 kts | 315° |
| 2026-05-06 00:30 | 43.68916 | -79.63319 | 566 ft | 20 kts | 317° |
| 2026-05-06 00:30 | 43.69019 | -79.63448 | 570 ft | 21 kts | 318° |
| 2026-05-06 00:31 | 43.69086 | -79.63529 | 572 ft | 11 kts | 338° |
| 2026-05-06 00:31 | 43.69151 | -79.63486 | 567 ft | 11 kts | 44° |
| 2026-05-06 00:31 | 43.69215 | -79.63428 | 569 ft | 12 kts | 17° |
| 2026-05-06 00:31 | 43.69301 | -79.63423 | 566 ft | 11 kts | 0° |
| 2026-05-06 00:32 | 43.69329 | -79.63422 | 562 ft | 1 kts | 0° |
| 2026-05-06 00:32 | 43.69364 | -79.63445 | 560 ft | 8 kts | 322° |
| 2026-05-06 00:32 | 43.69405 | -79.63495 | 558 ft | 5 kts | 308° |
| 2026-05-06 00:32 | 43.69400 | -79.63531 | 562 ft | 3 kts | 231° |
| 2026-05-06 00:33 | 43.69383 | -79.63554 | 568 ft | 8 kts | 223° |
| 2026-05-06 00:33 | 43.69172 | -79.63852 | 566 ft | 86 kts | 227° |
| 2026-05-06 00:33 | 43.68549 | -79.64759 | 572 ft | 163 kts | 226° |
| 2026-05-06 00:33 | 43.67648 | -79.66004 | 891 ft | 196 kts | 225° |
| 2026-05-06 00:34 | 43.66616 | -79.67379 | 1444 ft | 215 kts | 223° |
| 2026-05-06 00:34 | 43.65558 | -79.68888 | 2208 ft | 217 kts | 233° |
| 2026-05-06 00:34 | 43.64703 | -79.70655 | 2857 ft | 231 kts | 239° |
| 2026-05-06 00:34 | 43.63846 | -79.72648 | 3361 ft | 251 kts | 240° |
| 2026-05-06 00:35 | 43.62948 | -79.74713 | 4219 ft | 255 kts | 241° |
| 2026-05-06 00:35 | 43.62001 | -79.76794 | 5198 ft | 256 kts | 240° |
| 2026-05-06 00:35 | 43.61033 | -79.78829 | 6303 ft | 251 kts | 239° |
| 2026-05-06 00:35 | 43.60062 | -79.80807 | 7309 ft | 248 kts | 239° |
| 2026-05-06 00:36 | 43.59343 | -79.82929 | 8307 ft | 244 kts | 257° |
| 2026-05-06 00:36 | 43.59340 | -79.85288 | 9334 ft | 249 kts | 277° |
| 2026-05-06 00:36 | 43.60113 | -79.87446 | 10213 ft | 266 kts | 301° |
| 2026-05-06 00:36 | 43.61657 | -79.89051 | 10873 ft | 294 kts | 321° |
| 2026-05-06 00:37 | 43.63544 | -79.90426 | 11107 ft | 319 kts | 323° |
| 2026-05-06 00:37 | 43.65572 | -79.91815 | 11637 ft | 331 kts | 324° |
| 2026-05-06 00:37 | 43.67662 | -79.93207 | 12380 ft | 335 kts | 325° |
| 2026-05-06 00:37 | 43.69769 | -79.94607 | 13160 ft | 337 kts | 325° |
| 2026-05-06 00:38 | 43.71887 | -79.96029 | 13898 ft | 340 kts | 324° |
| 2026-05-06 00:38 | 43.74019 | -79.97483 | 14519 ft | 344 kts | 324° |
| 2026-05-06 00:38 | 43.75756 | -79.98679 | 15007 ft | 347 kts | 324° |
| 2026-05-06 00:39 | 43.76927 | -79.99490 | 15319 ft | 350 kts | 323° |
| 2026-05-06 00:39 | 43.79127 | -80.01016 | 15956 ft | 355 kts | 323° |
| 2026-05-06 00:39 | 43.81340 | -80.02557 | 16615 ft | 358 kts | 322° |
| 2026-05-06 00:39 | 43.83581 | -80.04120 | 17204 ft | 363 kts | 322° |
| 2026-05-06 00:40 | 43.85851 | -80.05702 | 17767 ft | 367 kts | 322° |
| 2026-05-06 00:40 | 43.88147 | -80.07301 | 18296 ft | 372 kts | 322° |
| 2026-05-06 00:40 | 43.90471 | -80.08917 | 18800 ft | 376 kts | 322° |
| 2026-05-06 00:40 | 43.92692 | -80.10749 | 19316 ft | 366 kts | 312° |
| 2026-05-06 00:41 | 43.94546 | -80.13090 | 19828 ft | 356 kts | 301° |
| 2026-05-06 00:41 | 43.96059 | -80.15771 | 20358 ft | 353 kts | 297° |
| 2026-05-06 00:41 | 43.97537 | -80.18500 | 20949 ft | 354 kts | 297° |
| 2026-05-06 00:41 | 43.99024 | -80.21242 | 21501 ft | 356 kts | 297° |
| 2026-05-06 00:42 | 44.00517 | -80.24004 | 22065 ft | 359 kts | 297° |
| 2026-05-06 00:42 | 44.02010 | -80.26771 | 22718 ft | 357 kts | 297° |
| 2026-05-06 00:42 | 44.03500 | -80.29528 | 22958 ft | 357 kts | 297° |
| 2026-05-06 00:42 | 44.04990 | -80.32285 | 23009 ft | 356 kts | 297° |
| 2026-05-06 00:43 | 44.06477 | -80.35038 | 23016 ft | 356 kts | 297° |
| 2026-05-06 00:43 | 44.07960 | -80.37790 | 23016 ft | 355 kts | 297° |
| 2026-05-06 00:43 | 44.09443 | -80.40551 | 23012 ft | 355 kts | 297° |
| 2026-05-06 00:43 | 44.10921 | -80.43307 | 23007 ft | 355 kts | 297° |
| 2026-05-06 00:44 | 44.12397 | -80.46056 | 23005 ft | 355 kts | 297° |
| 2026-05-06 00:44 | 44.13895 | -80.48797 | 23002 ft | 358 kts | 301° |
| 2026-05-06 00:44 | 44.15595 | -80.51373 | 23012 ft | 362 kts | 303° |
| 2026-05-06 00:44 | 44.17319 | -80.53935 | 23047 ft | 362 kts | 303° |
| 2026-05-06 00:45 | 44.19025 | -80.56462 | 23011 ft | 356 kts | 303° |
| 2026-05-06 00:45 | 44.20717 | -80.58969 | 23017 ft | 353 kts | 303° |
| 2026-05-06 00:45 | 44.22396 | -80.61466 | 23013 ft | 353 kts | 303° |
| 2026-05-06 00:45 | 44.24069 | -80.63962 | 23038 ft | 351 kts | 303° |
| 2026-05-06 00:46 | 44.25732 | -80.66443 | 23017 ft | 350 kts | 303° |
| 2026-05-06 00:46 | 44.27393 | -80.68918 | 23018 ft | 349 kts | 303° |
| 2026-05-06 00:46 | 44.29050 | -80.71388 | 23019 ft | 349 kts | 303° |
| 2026-05-06 00:46 | 44.30706 | -80.73867 | 23018 ft | 349 kts | 302° |
| 2026-05-06 00:47 | 44.32365 | -80.76352 | 23018 ft | 349 kts | 302° |
| 2026-05-06 00:47 | 44.34016 | -80.78829 | 23029 ft | 349 kts | 302° |
| 2026-05-06 00:47 | 44.35670 | -80.81312 | 23018 ft | 349 kts | 302° |
| 2026-05-06 00:47 | 44.37324 | -80.83796 | 23022 ft | 349 kts | 302° |
| 2026-05-06 00:48 | 44.38977 | -80.86283 | 23018 ft | 349 kts | 302° |
| 2026-05-06 00:48 | 44.40628 | -80.88773 | 23025 ft | 349 kts | 302° |
| 2026-05-06 00:48 | 44.42267 | -80.91249 | 23459 ft | 352 kts | 302° |
| 2026-05-06 00:48 | 44.43950 | -80.93796 | 23965 ft | 352 kts | 302° |
| 2026-05-06 00:49 | 44.45615 | -80.96314 | 24384 ft | 354 kts | 302° |
| 2026-05-06 00:49 | 44.47293 | -80.98852 | 24781 ft | 356 kts | 302° |
| 2026-05-06 00:49 | 44.48965 | -81.01379 | 25165 ft | 359 kts | 302° |
| 2026-05-06 00:49 | 44.50665 | -81.03948 | 25546 ft | 361 kts | 301° |
| 2026-05-06 00:50 | 44.52375 | -81.06538 | 25908 ft | 363 kts | 301° |
| 2026-05-06 00:50 | 44.54095 | -81.09148 | 26267 ft | 365 kts | 301° |
| 2026-05-06 00:50 | 44.55824 | -81.11767 | 26622 ft | 368 kts | 301° |
| 2026-05-06 00:50 | 44.57568 | -81.14409 | 26973 ft | 370 kts | 301° |
| 2026-05-06 00:51 | 44.59323 | -81.17076 | 27320 ft | 372 kts | 301° |
| 2026-05-06 00:51 | 44.61083 | -81.19756 | 27660 ft | 375 kts | 301° |
| 2026-05-06 00:51 | 44.62858 | -81.22449 | 28001 ft | 377 kts | 301° |
| 2026-05-06 00:51 | 44.64644 | -81.25160 | 28329 ft | 379 kts | 301° |
| 2026-05-06 00:52 | 44.66437 | -81.27887 | 28694 ft | 381 kts | 301° |
| 2026-05-06 00:52 | 44.68236 | -81.30629 | 29086 ft | 382 kts | 301° |
| 2026-05-06 00:52 | 44.70039 | -81.33383 | 29406 ft | 384 kts | 301° |
| 2026-05-06 00:52 | 44.71850 | -81.36153 | 29715 ft | 385 kts | 301° |
| 2026-05-06 00:53 | 44.73667 | -81.38940 | 29994 ft | 387 kts | 301° |
| 2026-05-06 00:53 | 44.75495 | -81.41748 | 30243 ft | 389 kts | 301° |
| 2026-05-06 00:53 | 44.77327 | -81.44556 | 30499 ft | 390 kts | 301° |
| 2026-05-06 00:53 | 44.79166 | -81.47375 | 30758 ft | 391 kts | 301° |
| 2026-05-06 00:54 | 44.81003 | -81.50206 | 31007 ft | 392 kts | 301° |
| 2026-05-06 00:54 | 44.82839 | -81.53042 | 31313 ft | 391 kts | 301° |
| 2026-05-06 00:54 | 44.84668 | -81.55865 | 31673 ft | 389 kts | 301° |
| 2026-05-06 00:54 | 44.86489 | -81.58674 | 32030 ft | 387 kts | 301° |
| 2026-05-06 00:55 | 44.88298 | -81.61471 | 32430 ft | 384 kts | 302° |
| 2026-05-06 00:55 | 44.90088 | -81.64235 | 33002 ft | 378 kts | 302° |
| 2026-05-06 00:55 | 44.91848 | -81.66942 | 33464 ft | 373 kts | 302° |
| 2026-05-06 00:55 | 44.93591 | -81.69635 | 33864 ft | 370 kts | 302° |
| 2026-05-06 00:56 | 44.95320 | -81.72323 | 34165 ft | 368 kts | 302° |
| 2026-05-06 00:56 | 44.97034 | -81.74997 | 34398 ft | 368 kts | 302° |
| 2026-05-06 00:56 | 44.98755 | -81.77681 | 34598 ft | 369 kts | 302° |
| 2026-05-06 00:56 | 45.00486 | -81.80372 | 34791 ft | 370 kts | 302° |
| 2026-05-06 00:57 | 45.02192 | -81.83027 | 34976 ft | 370 kts | 302° |
| 2026-05-06 00:57 | 45.03944 | -81.85763 | 35159 ft | 371 kts | 302° |
| 2026-05-06 00:57 | 45.05652 | -81.88434 | 35334 ft | 371 kts | 302° |
| 2026-05-06 00:57 | 45.07381 | -81.91140 | 35508 ft | 372 kts | 302° |
| 2026-05-06 00:58 | 45.09122 | -81.93852 | 35684 ft | 373 kts | 302° |
| 2026-05-06 00:58 | 45.10867 | -81.96566 | 35875 ft | 373 kts | 302° |
| 2026-05-06 00:58 | 45.12611 | -81.99278 | 35889 ft | 372 kts | 302° |
| 2026-05-06 00:59 | 45.16080 | -82.04701 | 35891 ft | 370 kts | 302° |
| 2026-05-06 00:59 | 45.19528 | -82.10116 | 35888 ft | 370 kts | 302° |
| 2026-05-06 01:00 | 45.22974 | -82.15547 | 35889 ft | 370 kts | 302° |
| 2026-05-06 01:00 | 45.26420 | -82.20977 | 35891 ft | 370 kts | 302° |
| 2026-05-06 01:01 | 45.29862 | -82.26413 | 35913 ft | 370 kts | 302° |
| 2026-05-06 01:01 | 45.33304 | -82.31869 | 35905 ft | 371 kts | 302° |
| 2026-05-06 01:02 | 45.36737 | -82.37314 | 35885 ft | 370 kts | 302° |
| 2026-05-06 01:02 | 45.40136 | -82.42746 | 35882 ft | 369 kts | 301° |
| 2026-05-06 01:03 | 45.43354 | -82.48406 | 35885 ft | 367 kts | 298° |
| 2026-05-06 01:03 | 45.46462 | -82.54178 | 35885 ft | 367 kts | 298° |
| 2026-05-06 01:04 | 45.49587 | -82.59925 | 35902 ft | 367 kts | 298° |
| 2026-05-06 01:04 | 45.52737 | -82.65665 | 35898 ft | 367 kts | 298° |
| 2026-05-06 01:05 | 45.55890 | -82.71414 | 35912 ft | 368 kts | 299° |
| 2026-05-06 01:05 | 45.59053 | -82.77175 | 35893 ft | 369 kts | 299° |
| 2026-05-06 01:06 | 45.62215 | -82.82958 | 35890 ft | 369 kts | 299° |
| 2026-05-06 01:06 | 45.65378 | -82.88740 | 35887 ft | 369 kts | 299° |
| 2026-05-06 01:07 | 45.68535 | -82.94536 | 35918 ft | 369 kts | 299° |
| 2026-05-06 01:07 | 45.71687 | -83.00346 | 35901 ft | 370 kts | 299° |
| 2026-05-06 01:08 | 45.74840 | -83.06167 | 35894 ft | 370 kts | 299° |
| 2026-05-06 01:08 | 45.77994 | -83.12004 | 35908 ft | 371 kts | 299° |
| 2026-05-06 01:09 | 45.81163 | -83.17870 | 35890 ft | 372 kts | 299° |
| 2026-05-06 01:09 | 45.84308 | -83.23717 | 35885 ft | 373 kts | 299° |
| 2026-05-06 01:10 | 45.87479 | -83.29619 | 35894 ft | 374 kts | 299° |
| 2026-05-06 01:10 | 45.90656 | -83.35533 | 35894 ft | 374 kts | 299° |
| 2026-05-06 01:11 | 45.93836 | -83.41457 | 35897 ft | 374 kts | 299° |
| 2026-05-06 01:11 | 45.97004 | -83.47394 | 35884 ft | 374 kts | 299° |
| 2026-05-06 01:12 | 46.00176 | -83.53341 | 35897 ft | 375 kts | 300° |
| 2026-05-06 01:12 | 46.02840 | -83.58346 | 35873 ft | 377 kts | 300° |
| 2026-05-06 01:13 | 46.06036 | -83.64355 | 35863 ft | 379 kts | 300° |
| 2026-05-06 01:13 | 46.09242 | -83.70393 | 35858 ft | 380 kts | 300° |
| 2026-05-06 01:14 | 46.14023 | -83.79468 | 35866 ft | 381 kts | 300° |
| 2026-05-06 01:14 | 46.17241 | -83.85555 | 35870 ft | 382 kts | 300° |
| 2026-05-06 01:15 | 46.20445 | -83.91663 | 35871 ft | 381 kts | 299° |
| 2026-05-06 01:15 | 46.23650 | -83.97784 | 35892 ft | 383 kts | 300° |
| 2026-05-06 01:16 | 46.26871 | -84.03944 | 35881 ft | 385 kts | 300° |
| 2026-05-06 01:16 | 46.30102 | -84.10135 | 35878 ft | 386 kts | 300° |
| 2026-05-06 01:17 | 46.33347 | -84.16345 | 35877 ft | 387 kts | 300° |
| 2026-05-06 01:17 | 46.36597 | -84.22574 | 35885 ft | 388 kts | 300° |
| 2026-05-06 01:18 | 46.39838 | -84.28822 | 35890 ft | 388 kts | 300° |
| 2026-05-06 01:18 | 46.42743 | -84.35332 | 35878 ft | 383 kts | 294° |
| 2026-05-06 01:19 | 46.45389 | -84.42041 | 35911 ft | 384 kts | 294° |
| 2026-05-06 01:19 | 46.48036 | -84.48795 | 35898 ft | 385 kts | 294° |
| 2026-05-06 01:20 | 46.50681 | -84.55564 | 35890 ft | 386 kts | 294° |
| 2026-05-06 01:20 | 46.53339 | -84.62341 | 35890 ft | 386 kts | 294° |
| 2026-05-06 01:21 | 46.55994 | -84.69130 | 35893 ft | 387 kts | 294° |
| 2026-05-06 01:21 | 46.58638 | -84.75926 | 35909 ft | 387 kts | 294° |
| 2026-05-06 01:22 | 46.61275 | -84.82755 | 35909 ft | 387 kts | 294° |
| 2026-05-06 01:22 | 46.63916 | -84.89577 | 35910 ft | 387 kts | 294° |
| 2026-05-06 01:23 | 46.66553 | -84.96407 | 35911 ft | 387 kts | 294° |
| 2026-05-06 01:23 | 46.69182 | -85.03251 | 35915 ft | 387 kts | 294° |